createdAt,value
2022-12-18T00:00:48.396Z,101812.42
2022-12-18T00:03:36.435Z,101813.85
2022-12-18T00:06:03.145Z,101814.70
2022-12-18T00:08:29.538Z,101818.39
2022-12-18T00:10:55.929Z,101825.24
2022-12-18T00:13:27.616Z,101824.25
2022-12-18T00:15:54.488Z,101826.02
2022-12-18T00:18:23.136Z,101824.33
2022-12-18T00:20:49.453Z,101828.14
2022-12-18T00:23:15.856Z,101832.46
2022-12-18T00:25:42.259Z,101836.81
2022-12-18T00:28:08.740Z,101835.86
2022-12-18T00:30:35.124Z,101833.83
2022-12-18T00:33:01.476Z,101842.45
2022-12-18T00:35:27.935Z,101848.11
2022-12-18T00:37:54.345Z,101848.13
2022-12-18T00:40:20.683Z,101848.58
2022-12-18T00:42:56.265Z,101848.20
2022-12-18T00:45:31.142Z,101854.95
2022-12-18T00:47:57.724Z,101860.66
2022-12-18T00:50:25.166Z,101866.11
2022-12-18T00:52:52.389Z,101868.55
2022-12-18T00:55:19.123Z,101867.28
2022-12-18T00:57:46.998Z,101867.92
2022-12-18T01:00:14.885Z,101870.82
2022-12-18T01:02:41.806Z,101879.79
2022-12-18T01:05:10.362Z,101881.87
2022-12-18T01:07:37.304Z,101888.98
2022-12-18T01:10:05.447Z,101888.45
2022-12-18T01:12:32.083Z,101893.52
2022-12-18T01:14:58.811Z,101894.94
2022-12-18T01:17:25.573Z,101901.17
2022-12-18T01:19:53.577Z,101901.83
2022-12-18T01:22:20.006Z,101901.77
2022-12-18T01:24:46.615Z,101907.77
2022-12-18T01:27:13.016Z,101901.24
2022-12-18T01:29:39.944Z,101907.55
2022-12-18T01:32:06.388Z,101912.46
2022-12-18T01:34:32.908Z,101912.54
2022-12-18T01:36:59.232Z,101914.77
2022-12-18T01:39:26.201Z,101916.20
2022-12-18T01:42:01.728Z,101918.26
2022-12-18T01:44:53.226Z,101916.08
2022-12-18T01:47:39.613Z,101915.46
2022-12-18T01:50:15.398Z,101920.40
2022-12-18T01:52:44.480Z,101921.35
2022-12-18T01:55:11.738Z,101920.81
2022-12-18T01:57:38.711Z,101917.85
2022-12-18T02:00:12.985Z,101920.23
2022-12-18T02:02:41.372Z,101920.66
2022-12-18T02:05:08.561Z,101918.45
2022-12-18T02:07:35.047Z,101915.71
2022-12-18T02:10:14.025Z,101926.83
2022-12-18T02:12:43.067Z,101926.45
2022-12-18T02:15:26.026Z,101925.56
2022-12-18T02:17:59.286Z,101934.16
2022-12-18T02:20:35.696Z,101932.47
2022-12-18T02:23:14.416Z,101932.30
2022-12-18T02:26:06.399Z,101940.19
2022-12-18T02:28:37.147Z,101935.63
2022-12-18T02:31:08.283Z,101943.02
2022-12-18T02:33:36.508Z,101952.31
2022-12-18T02:36:03.749Z,101953.73
2022-12-18T02:38:31.881Z,101952.44
2022-12-18T02:41:02.844Z,101959.09
2022-12-18T02:43:30.103Z,101957.05
2022-12-18T02:45:59.850Z,101955.80
2022-12-18T02:48:33.768Z,101957.23
2022-12-18T02:51:09.349Z,101959.46
2022-12-18T02:54:15.467Z,101956.58
2022-12-18T02:56:48.625Z,101951.16
2022-12-18T02:59:32.371Z,101950.58
2022-12-18T03:01:59.700Z,101953.27
2022-12-18T03:04:40.495Z,101955.16
2022-12-18T03:07:12.978Z,101959.94
2022-12-18T03:09:41.993Z,101959.32
2022-12-18T03:12:25.351Z,101955.46
2022-12-18T03:15:05.345Z,101954.79
2022-12-18T03:17:34.114Z,101956.16
2022-12-18T03:20:06.759Z,101957.25
2022-12-18T03:22:35.597Z,101960.34
2022-12-18T03:25:06.750Z,101957.58
2022-12-18T03:27:37.662Z,101955.23
2022-12-18T03:30:09.280Z,101955.19
2022-12-18T03:32:47.748Z,101959.05
2022-12-18T03:35:22.332Z,101963.70
2022-12-18T03:37:49.314Z,101965.20
2022-12-18T03:40:15.881Z,101966.61
2022-12-18T03:42:57.907Z,101962.99
2022-12-18T03:45:35.131Z,101970.77
2022-12-18T03:48:03.947Z,101971.25
2022-12-18T03:51:05.296Z,101974.26
2022-12-18T03:53:47.219Z,101976.92
2022-12-18T03:56:16.380Z,101977.60
2022-12-18T03:58:43.945Z,101979.47
2022-12-18T04:01:20.827Z,101985.87
2022-12-18T04:03:49.471Z,101988.31
2022-12-18T04:06:17.674Z,101988.61
2022-12-18T04:08:45.386Z,101992.27
2022-12-18T04:11:13.492Z,101997.24
2022-12-18T04:13:43.082Z,102000.91
2022-12-18T04:16:15.399Z,102007.52
2022-12-18T04:18:43.154Z,102013.79
2022-12-18T04:21:10.640Z,102016.61
2022-12-18T04:23:37.825Z,102022.48
2022-12-18T04:26:04.751Z,102020.02
2022-12-18T04:28:42.273Z,102021.98
2022-12-18T04:31:09.247Z,102019.91
2022-12-18T04:33:36.014Z,102016.12
2022-12-18T04:36:03.776Z,102014.59
2022-12-18T04:38:30.405Z,102019.18
2022-12-18T04:41:02.668Z,102023.10
2022-12-18T04:43:30.064Z,102030.41
2022-12-18T04:46:07.297Z,102035.75
2022-12-18T04:48:33.941Z,102038.73
2022-12-18T04:51:02.962Z,102045.63
2022-12-18T04:53:29.319Z,102044.21
2022-12-18T04:56:13.500Z,102043.92
2022-12-18T04:58:41.661Z,102049.22
2022-12-18T05:01:09.050Z,102049.52
2022-12-18T05:03:36.628Z,102049.64
2022-12-18T05:06:04.225Z,102054.56
2022-12-18T05:08:30.743Z,102055.42
2022-12-18T05:11:06.677Z,102057.23
2022-12-18T05:13:34.222Z,102059.36
2022-12-18T05:16:00.929Z,102049.88
2022-12-18T05:18:27.515Z,102049.61
2022-12-18T05:20:54.754Z,102056.38
2022-12-18T05:23:23.146Z,102059.65
2022-12-18T05:26:15.491Z,102061.83
2022-12-18T05:28:41.957Z,102061.20
2022-12-18T05:31:08.414Z,102066.71
2022-12-18T05:33:35.661Z,102070.71
2022-12-18T05:36:04.572Z,102073.95
2022-12-18T05:38:32.579Z,102080.73
2022-12-18T05:40:59.700Z,102085.13
2022-12-18T05:43:26.920Z,102086.35
2022-12-18T05:45:54.371Z,102097.89
2022-12-18T05:48:21.291Z,102094.52
2022-12-18T05:50:49.021Z,102094.02
2022-12-18T05:53:17.485Z,102100.39
2022-12-18T05:55:44.606Z,102108.11
2022-12-18T05:58:12.917Z,102109.64
2022-12-18T06:00:42.833Z,102111.53
2022-12-18T06:03:11.155Z,102116.52
2022-12-18T06:05:43.699Z,102119.91
2022-12-18T06:08:10.903Z,102119.91
2022-12-18T06:10:37.882Z,102125.19
2022-12-18T06:13:04.989Z,102123.16
2022-12-18T06:15:31.646Z,102121.01
2022-12-18T06:17:58.054Z,102127.11
2022-12-18T06:20:26.916Z,102126.48
2022-12-18T06:22:56.961Z,102130.94
2022-12-18T06:25:23.465Z,102135.98
2022-12-18T06:27:49.829Z,102133.16
2022-12-18T06:30:16.253Z,102132.08
2022-12-18T06:32:43.029Z,102138.13
2022-12-18T06:35:09.452Z,102145.91
2022-12-18T06:37:35.785Z,102151.77
2022-12-18T06:40:02.381Z,102156.12
2022-12-18T06:42:29.475Z,102152.72
2022-12-18T06:44:55.930Z,102152.70
2022-12-18T06:47:22.320Z,102156.22
2022-12-18T06:49:48.685Z,102159.13
2022-12-18T06:52:18.014Z,102157.30
2022-12-18T06:54:44.719Z,102166.98
2022-12-18T06:57:11.486Z,102170.17
2022-12-18T06:59:37.829Z,102176.71
2022-12-18T07:02:05.009Z,102175.05
2022-12-18T07:04:32.308Z,102172.89
2022-12-18T07:06:58.703Z,102181.09
2022-12-18T07:09:25.173Z,102185.74
2022-12-18T07:11:52.535Z,102183.61
2022-12-18T07:14:18.974Z,102182.79
2022-12-18T07:16:45.484Z,102182.41
2022-12-18T07:19:11.860Z,102180.13
2022-12-18T07:21:38.411Z,102181.98
2022-12-18T07:24:05.839Z,102189.93
2022-12-18T07:26:32.837Z,102198.71
2022-12-18T07:28:59.189Z,102202.11
2022-12-18T07:31:26.000Z,102203.59
2022-12-18T07:33:52.635Z,102203.55
2022-12-18T07:36:19.674Z,102207.98
2022-12-18T07:38:49.951Z,102206.04
2022-12-18T07:41:16.918Z,102206.67
2022-12-18T07:43:43.840Z,102204.45
2022-12-18T07:46:13.975Z,102211.88
2022-12-18T07:48:41.635Z,102218.68
2022-12-18T07:51:08.661Z,102219.16
2022-12-18T07:53:36.309Z,102224.17
2022-12-18T07:56:26.381Z,102231.80
2022-12-18T07:58:52.810Z,102236.98
2022-12-18T08:01:19.274Z,102235.19
2022-12-18T08:03:47.901Z,102229.14
2022-12-18T08:06:14.630Z,102232.48
2022-12-18T08:08:42.452Z,102241.20
2022-12-18T08:11:08.870Z,102237.83
2022-12-18T08:13:35.313Z,102235.26
2022-12-18T08:16:04.825Z,102239.24
2022-12-18T08:18:35.974Z,102247.91
2022-12-18T08:21:09.979Z,102254.29
2022-12-18T08:23:42.082Z,102259.75
2022-12-18T08:26:13.363Z,102263.10
2022-12-18T08:28:40.458Z,102263.98
2022-12-18T08:31:07.999Z,102264.44
2022-12-18T08:33:35.213Z,102271.34
2022-12-18T08:36:02.243Z,102263.69
2022-12-18T08:38:28.936Z,102266.52
2022-12-18T08:41:15.074Z,102270.66
2022-12-18T08:44:00.938Z,102278.28
2022-12-18T08:46:36.499Z,102282.55
2022-12-18T08:49:03.751Z,102293.48
2022-12-18T08:51:30.603Z,102299.13
2022-12-18T08:53:57.325Z,102293.80
2022-12-18T08:56:23.699Z,102284.15
2022-12-18T08:58:54.432Z,102272.37
2022-12-18T09:01:21.489Z,102266.63
2022-12-18T09:03:49.533Z,102252.76
2022-12-18T09:06:17.609Z,102250.25
2022-12-18T09:08:45.080Z,102249.17
2022-12-18T09:11:20.152Z,102245.86
2022-12-18T09:13:46.633Z,102243.80
2022-12-18T09:16:13.201Z,102245.47
2022-12-18T09:18:39.887Z,102241.99
2022-12-18T09:21:11.246Z,102242.45
2022-12-18T09:23:37.695Z,102242.34
2022-12-18T09:26:04.666Z,102236.36
2022-12-18T09:28:31.022Z,102227.24
2022-12-18T09:30:57.821Z,102222.23
2022-12-18T09:33:24.433Z,102222.52
2022-12-18T09:35:50.908Z,102219.71
2022-12-18T09:38:19.758Z,102212.55
2022-12-18T09:40:54.601Z,102215.42
2022-12-18T09:43:30.832Z,102217.73
2022-12-18T09:46:27.900Z,102219.16
2022-12-18T09:48:57.796Z,102216.00
2022-12-18T09:51:35.646Z,102216.89
2022-12-18T09:54:05.900Z,102214.00
2022-12-18T09:56:36.173Z,102212.50
2022-12-18T09:59:04.375Z,102217.11
2022-12-18T10:01:40.186Z,102215.67
2022-12-18T10:04:09.961Z,102225.46
2022-12-18T10:06:48.967Z,102233.66
2022-12-18T10:09:29.169Z,102234.91
2022-12-18T10:11:56.138Z,102234.84
2022-12-18T10:14:43.724Z,102241.54
2022-12-18T10:18:08.971Z,102240.43
2022-12-18T10:20:58.638Z,102235.59
2022-12-18T10:23:30.429Z,102234.04
2022-12-18T10:26:05.390Z,102234.10
2022-12-18T10:28:35.254Z,102238.25
2022-12-18T10:31:01.879Z,102238.09
2022-12-18T10:33:30.461Z,102237.48
2022-12-18T10:35:57.720Z,102234.09
2022-12-18T10:38:30.244Z,102228.38
2022-12-18T10:41:01.560Z,102227.41
2022-12-18T10:43:28.000Z,102223.45
2022-12-18T10:46:08.357Z,102224.26
2022-12-18T10:48:57.358Z,102228.22
2022-12-18T10:51:30.298Z,102231.52
2022-12-18T10:54:00.045Z,102227.52
2022-12-18T10:56:28.744Z,102230.91
2022-12-18T10:59:06.333Z,102239.27
2022-12-18T11:01:56.297Z,102246.08
2022-12-18T11:04:25.413Z,102251.41
2022-12-18T11:07:07.571Z,102250.61
2022-12-18T11:09:36.830Z,102251.52
2022-12-18T11:12:20.468Z,102259.88
2022-12-18T11:14:51.973Z,102262.17
2022-12-18T11:17:25.917Z,102265.12
2022-12-18T11:19:57.526Z,102263.50
2022-12-18T11:22:27.894Z,102262.82
2022-12-18T11:25:32.598Z,102256.73
2022-12-18T11:27:56.204Z,102253.23
2022-12-18T11:30:28.682Z,102246.51
2022-12-18T11:33:09.964Z,102239.83
2022-12-18T11:35:46.165Z,102229.71
2022-12-18T11:38:27.620Z,102228.50
2022-12-18T11:41:50.455Z,102222.82
2022-12-18T11:44:43.366Z,102227.59
2022-12-18T11:47:31.709Z,102220.48
2022-12-18T11:50:01.645Z,102217.54
2022-12-18T11:52:37.572Z,102216.31
2022-12-18T11:55:23.599Z,102220.23
2022-12-18T11:58:27.872Z,102220.70
2022-12-18T12:01:06.443Z,102214.88
2022-12-18T12:03:41.104Z,102208.97
2022-12-18T12:06:24.926Z,102204.23
2022-12-18T12:08:54.814Z,102206.41
2022-12-18T12:11:33.348Z,102215.10
2022-12-18T12:14:24.896Z,102218.48
2022-12-18T12:17:23.825Z,102219.74
2022-12-18T12:20:13.506Z,102219.90
2022-12-18T12:22:50.287Z,102224.54
2022-12-18T12:25:50.290Z,102221.23
2022-12-18T12:28:49.001Z,102219.21
2022-12-18T12:31:21.469Z,102219.18
2022-12-18T12:34:01.893Z,102218.13
2022-12-18T12:36:50.284Z,102214.42
2022-12-18T12:39:20.957Z,102210.37
2022-12-18T12:42:06.238Z,102211.56
2022-12-18T12:44:38.892Z,102213.70
2022-12-18T12:47:17.265Z,102219.98
2022-12-18T12:49:48.071Z,102215.92
2022-12-18T12:52:18.537Z,102215.67
2022-12-18T12:54:45.898Z,102217.44
2022-12-18T12:57:18.669Z,102211.92
2022-12-18T13:00:06.387Z,102214.78
2022-12-18T13:02:45.661Z,102212.20
2022-12-18T13:05:24.105Z,102208.48
2022-12-18T13:07:55.151Z,102206.27
2022-12-18T13:10:31.549Z,102200.61
2022-12-18T13:13:13.364Z,102202.95
2022-12-18T13:15:41.410Z,102199.42
2022-12-18T13:18:09.675Z,102196.51
2022-12-18T13:20:40.566Z,102198.95
2022-12-18T13:23:25.061Z,102199.95
2022-12-18T13:25:59.761Z,102202.48
2022-12-18T13:28:45.695Z,102208.23
2022-12-18T13:31:14.071Z,102213.44
2022-12-18T13:34:24.724Z,102219.48
2022-12-18T13:36:33.983Z,102220.01
2022-12-18T13:39:34.909Z,102224.30
2022-12-18T13:42:05.283Z,102225.17
2022-12-18T13:44:38.544Z,102233.95
2022-12-18T13:47:33.128Z,102231.92
2022-12-18T13:50:00.807Z,102231.76
2022-12-18T13:52:36.043Z,102228.89
2022-12-18T13:55:07.607Z,102227.34
2022-12-18T13:57:38.918Z,102227.04
2022-12-18T14:00:20.856Z,102227.39
2022-12-18T14:02:47.482Z,102234.30
2022-12-18T14:05:34.727Z,102243.41
2022-12-18T14:08:05.973Z,102247.81
2022-12-18T14:10:47.751Z,102247.80
2022-12-18T14:13:42.179Z,102249.30
2022-12-18T14:16:14.389Z,102253.85
2022-12-18T14:18:45.713Z,102259.01
2022-12-18T14:21:38.308Z,102265.17
2022-12-18T14:24:09.146Z,102269.45
2022-12-18T14:26:35.540Z,102273.15
2022-12-18T14:29:19.258Z,102271.98
2022-12-18T14:31:45.982Z,102272.97
2022-12-18T14:34:19.713Z,102275.18
2022-12-18T14:36:56.617Z,102275.27
2022-12-18T14:39:24.204Z,102273.16
2022-12-18T14:41:52.543Z,102267.26
2022-12-18T14:44:19.000Z,102269.45
2022-12-18T14:46:46.605Z,102275.02
2022-12-18T14:49:26.829Z,102275.79
2022-12-18T14:51:56.074Z,102273.91
2022-12-18T14:54:23.872Z,102277.77
2022-12-18T14:57:26.712Z,102277.26
2022-12-18T14:59:53.091Z,102274.98
2022-12-18T15:02:27.908Z,102271.76
2022-12-18T15:05:13.339Z,102273.68
2022-12-18T15:07:53.557Z,102261.30
2022-12-18T15:10:21.763Z,102258.48
2022-12-18T15:13:01.445Z,102258.05
2022-12-18T15:15:34.383Z,102259.69
2022-12-18T15:18:04.308Z,102260.20
2022-12-18T15:20:31.952Z,102264.14
2022-12-18T15:22:58.394Z,102269.96
2022-12-18T15:25:39.940Z,102272.08
2022-12-18T15:28:34.120Z,102275.75
2022-12-18T15:31:10.071Z,102268.48
2022-12-18T15:33:40.108Z,102260.48
2022-12-18T15:36:12.160Z,102243.81
2022-12-18T15:38:38.680Z,102236.67
2022-12-18T15:41:11.578Z,102233.48
2022-12-18T15:43:41.171Z,102231.88
2022-12-18T15:46:16.036Z,102237.92
2022-12-18T15:48:44.752Z,102232.25
2022-12-18T15:51:17.848Z,102231.16
2022-12-18T15:53:45.424Z,102227.20
2022-12-18T15:56:32.682Z,102220.89
2022-12-18T15:59:01.057Z,102223.67
2022-12-18T16:01:29.934Z,102219.66
2022-12-18T16:03:56.931Z,102224.52
2022-12-18T16:06:23.452Z,102218.36
2022-12-18T16:08:50.105Z,102217.47
2022-12-18T16:11:38.227Z,102211.89
2022-12-18T16:14:28.422Z,102203.84
2022-12-18T16:17:05.911Z,102204.02
2022-12-18T16:19:32.261Z,102199.80
2022-12-18T16:21:58.930Z,102199.46
2022-12-18T16:24:28.620Z,102199.43
2022-12-18T16:26:57.109Z,102197.96
2022-12-18T16:29:27.155Z,102193.20
2022-12-18T16:31:57.327Z,102187.94
2022-12-18T16:34:29.999Z,102186.17
2022-12-18T16:37:03.323Z,102180.77
2022-12-18T16:39:34.270Z,102175.27
2022-12-18T16:42:12.828Z,102174.26
2022-12-18T16:44:39.145Z,102176.42
2022-12-18T16:47:05.460Z,102189.08
2022-12-18T16:49:33.013Z,102192.44
2022-12-18T16:52:03.573Z,102186.35
2022-12-18T16:54:30.078Z,102188.91
2022-12-18T16:56:57.078Z,102190.85
2022-12-18T16:59:23.471Z,102191.73
2022-12-18T17:01:50.457Z,102197.11
2022-12-18T17:04:17.814Z,102204.48
2022-12-18T17:06:51.015Z,102207.44
2022-12-18T17:09:22.497Z,102206.44
2022-12-18T17:11:48.891Z,102208.47
2022-12-18T17:14:17.805Z,102217.63
2022-12-18T17:16:45.877Z,102217.09
2022-12-18T17:19:17.142Z,102220.38
2022-12-18T17:21:46.558Z,102220.82
2022-12-18T17:24:12.895Z,102226.82
2022-12-18T17:26:39.370Z,102230.11
2022-12-18T17:29:05.788Z,102225.63
2022-12-18T17:31:33.769Z,102221.10
2022-12-18T17:34:02.454Z,102219.64
2022-12-18T17:36:31.591Z,102221.58
2022-12-18T17:39:00.293Z,102220.99
2022-12-18T17:41:27.809Z,102225.92
2022-12-18T17:43:59.181Z,102225.05
2022-12-18T17:46:26.728Z,102220.98
2022-12-18T17:48:57.059Z,102213.81
2022-12-18T17:51:23.748Z,102218.92
2022-12-18T17:53:50.338Z,102221.27
2022-12-18T17:56:19.341Z,102227.41
2022-12-18T17:58:47.266Z,102231.86
2022-12-18T18:01:15.523Z,102236.98
2022-12-18T18:03:44.022Z,102236.77
2022-12-18T18:06:11.220Z,102234.55
2022-12-18T18:08:37.773Z,102231.55
2022-12-18T18:11:24.339Z,102226.27
2022-12-18T18:14:00.330Z,102216.60
2022-12-18T18:16:34.572Z,102209.22
2022-12-18T18:19:03.483Z,102203.23
2022-12-18T18:21:30.829Z,102204.98
2022-12-18T18:24:04.423Z,102210.09
2022-12-18T18:26:32.482Z,102206.09
2022-12-18T18:29:00.454Z,102204.46
2022-12-18T18:31:30.279Z,102200.80
2022-12-18T18:33:57.319Z,102201.01
2022-12-18T18:36:24.085Z,102199.35
2022-12-18T18:38:51.309Z,102195.39
2022-12-18T18:41:18.622Z,102187.30
2022-12-18T18:43:45.458Z,102186.48
2022-12-18T18:46:14.221Z,102196.64
2022-12-18T18:48:43.660Z,102193.23
2022-12-18T18:51:14.612Z,102194.71
2022-12-18T18:53:49.202Z,102194.36
2022-12-18T18:56:45.620Z,102197.66
2022-12-18T18:59:04.127Z,102196.14
2022-12-18T19:01:30.570Z,102195.44
2022-12-18T19:03:57.161Z,102192.23
2022-12-18T19:06:25.828Z,102196.34
2022-12-18T19:08:54.852Z,102195.10
2022-12-18T19:11:41.769Z,102194.25
2022-12-18T19:14:10.267Z,102201.40
2022-12-18T19:16:37.051Z,102201.13
2022-12-18T19:19:03.789Z,102202.42
2022-12-18T19:21:31.863Z,102201.29
2022-12-18T19:24:01.837Z,102198.83
2022-12-18T19:26:28.863Z,102195.21
2022-12-18T19:29:03.308Z,102191.51
2022-12-18T19:31:35.137Z,102185.92
2022-12-18T19:34:04.365Z,102176.98
2022-12-18T19:36:34.600Z,102172.73
2022-12-18T19:39:02.207Z,102168.96
2022-12-18T19:41:31.277Z,102168.62
2022-12-18T19:43:58.459Z,102173.67
2022-12-18T19:46:24.882Z,102169.67
2022-12-18T19:48:51.684Z,102158.49
2022-12-18T19:51:23.664Z,102162.65
2022-12-18T19:53:56.390Z,102161.61
2022-12-18T19:56:26.860Z,102166.56
2022-12-18T19:58:53.739Z,102167.56
2022-12-18T20:01:22.413Z,102157.70
2022-12-18T20:03:52.576Z,102160.42
2022-12-18T20:06:26.478Z,102162.38
2022-12-18T20:08:54.651Z,102171.36
2022-12-18T20:11:26.271Z,102165.66
2022-12-18T20:13:52.647Z,102161.25
2022-12-18T20:16:19.144Z,102163.10
2022-12-18T20:18:45.568Z,102168.92
2022-12-18T20:21:14.020Z,102169.75
2022-12-18T20:23:41.482Z,102177.45
2022-12-18T20:26:08.737Z,102171.33
2022-12-18T20:28:35.527Z,102170.33
2022-12-18T20:31:05.757Z,102165.02
2022-12-18T20:33:32.615Z,102160.23
2022-12-18T20:36:01.684Z,102154.84
2022-12-18T20:38:29.507Z,102157.59
2022-12-18T20:40:58.797Z,102158.71
2022-12-18T20:43:25.265Z,102159.64
2022-12-18T20:46:00.337Z,102159.95
2022-12-18T20:48:27.712Z,102161.45
2022-12-18T20:51:07.429Z,102161.47
2022-12-18T20:53:34.796Z,102162.52
2022-12-18T20:56:06.431Z,102165.09
2022-12-18T20:58:33.001Z,102167.39
2022-12-18T21:01:03.564Z,102164.13
2022-12-18T21:03:30.184Z,102167.85
2022-12-18T21:05:56.627Z,102170.82
2022-12-18T21:08:23.033Z,102177.25
2022-12-18T21:10:49.325Z,102176.26
2022-12-18T21:13:16.469Z,102163.84
2022-12-18T21:15:43.588Z,102159.20
2022-12-18T21:18:10.407Z,102152.72
2022-12-18T21:20:36.934Z,102149.55
2022-12-18T21:23:14.267Z,102148.55
2022-12-18T21:25:42.989Z,102143.04
2022-12-18T21:28:09.294Z,102138.47
2022-12-18T21:30:35.693Z,102133.73
2022-12-18T21:33:02.265Z,102130.59
2022-12-18T21:35:28.568Z,102125.33
2022-12-18T21:37:58.407Z,102123.14
2022-12-18T21:40:24.816Z,102111.46
2022-12-18T21:43:10.340Z,102103.91
2022-12-18T21:45:40.291Z,102102.48
2022-12-18T21:48:06.845Z,102097.41
2022-12-18T21:50:33.150Z,102092.52
2022-12-18T21:52:59.528Z,102086.17
2022-12-18T21:55:25.901Z,102083.21
2022-12-18T21:57:54.067Z,102089.92
2022-12-18T22:00:20.552Z,102092.95
2022-12-18T22:02:48.745Z,102089.83
2022-12-18T22:05:35.149Z,102087.33
2022-12-18T22:08:01.459Z,102083.29
2022-12-18T22:10:27.983Z,102080.00
2022-12-18T22:12:55.116Z,102079.17
2022-12-18T22:15:22.041Z,102075.75
2022-12-18T22:17:52.688Z,102071.84
2022-12-18T22:20:27.869Z,102060.42
2022-12-18T22:22:55.749Z,102056.89
2022-12-18T22:25:22.065Z,102057.84
2022-12-18T22:28:07.228Z,102056.03
2022-12-18T22:30:34.175Z,102053.84
2022-12-18T22:33:01.174Z,102052.66
2022-12-18T22:35:27.491Z,102052.63
2022-12-18T22:37:54.019Z,102054.54
2022-12-18T22:40:27.415Z,102050.33
2022-12-18T22:42:54.156Z,102043.38
2022-12-18T22:45:20.547Z,102034.80
2022-12-18T22:47:46.919Z,102032.38
2022-12-18T22:50:14.111Z,102029.52
2022-12-18T22:52:40.484Z,102022.55
2022-12-18T22:55:07.704Z,102031.41
2022-12-18T22:57:34.236Z,102039.11
2022-12-18T23:00:01.812Z,102033.64
2022-12-18T23:02:28.465Z,102025.57
2022-12-18T23:04:55.041Z,102019.92
2022-12-18T23:07:21.568Z,102018.33
2022-12-18T23:09:50.031Z,102014.13
2022-12-18T23:12:19.072Z,102010.13
2022-12-18T23:14:47.927Z,102003.30
2022-12-18T23:17:14.389Z,102001.14
2022-12-18T23:19:47.106Z,101998.15
2022-12-18T23:22:16.457Z,101990.22
2022-12-18T23:24:42.964Z,101989.22
2022-12-18T23:27:11.841Z,101990.30
2022-12-18T23:29:39.874Z,101991.73
2022-12-18T23:32:07.041Z,101988.33
2022-12-18T23:34:33.406Z,101989.88
2022-12-18T23:37:00.383Z,101987.08
2022-12-18T23:39:30.158Z,101991.06
2022-12-18T23:41:57.806Z,101989.67
2022-12-18T23:44:24.734Z,101980.95
2022-12-18T23:46:51.103Z,101975.98
2022-12-18T23:49:17.850Z,101977.30
2022-12-18T23:51:44.209Z,101971.60
2022-12-18T23:54:10.634Z,101967.15
2022-12-18T23:56:37.075Z,101961.04
2022-12-18T23:59:03.508Z,101951.23
